createdAt,value
2018-10-03T00:01:41.670Z,17.77
2018-10-03T00:04:09.852Z,18.50
2018-10-03T00:06:38.107Z,19.42
2018-10-03T00:09:07.903Z,16.82
2018-10-03T00:11:36.108Z,17.62
2018-10-03T00:14:04.644Z,19.30
2018-10-03T00:16:32.843Z,17.87
2018-10-03T00:19:01.048Z,17.95
2018-10-03T00:21:29.307Z,19.17
2018-10-03T00:23:57.491Z,18.87
2018-10-03T00:26:25.733Z,18.57
2018-10-03T00:28:53.980Z,16.95
2018-10-03T00:31:22.164Z,19.23
2018-10-03T00:33:50.340Z,20.60
2018-10-03T00:36:18.608Z,21.25
2018-10-03T00:38:46.791Z,22.32
2018-10-03T00:41:14.979Z,22.40
2018-10-03T00:43:43.178Z,21.35
2018-10-03T00:46:11.356Z,19.92
2018-10-03T00:48:39.552Z,20.85
2018-10-03T00:51:07.760Z,18.00
2018-10-03T00:53:35.955Z,21.52
2018-10-03T00:56:04.202Z,24.02
2018-10-03T00:58:32.400Z,25.25
2018-10-03T01:01:00.592Z,23.70
2018-10-03T01:03:28.794Z,23.75
2018-10-03T01:05:56.989Z,22.70
2018-10-03T01:08:25.192Z,25.50
2018-10-03T01:10:53.384Z,24.00
2018-10-03T01:13:21.583Z,26.77
2018-10-03T01:15:49.764Z,24.35
2018-10-03T01:18:19.006Z,23.60
2018-10-03T01:20:47.229Z,23.30
2018-10-03T01:23:15.419Z,22.45
2018-10-03T01:25:43.612Z,21.20
2018-10-03T01:28:11.806Z,21.27
2018-10-03T01:30:40.007Z,23.90
2018-10-03T01:33:08.207Z,21.62
2018-10-03T01:35:36.412Z,21.93
2018-10-03T01:38:04.588Z,22.77
2018-10-03T01:40:32.853Z,21.02
2018-10-03T01:43:01.003Z,21.12
2018-10-03T01:45:29.191Z,18.87
2018-10-03T01:47:57.495Z,20.30
2018-10-03T01:50:25.683Z,20.20
2018-10-03T01:52:53.910Z,19.67
2018-10-03T01:55:22.116Z,20.88
2018-10-03T01:57:50.314Z,21.25
2018-10-03T02:00:18.469Z,22.70
2018-10-03T02:02:46.639Z,22.17
2018-10-03T02:05:14.830Z,21.87
2018-10-03T02:07:43.040Z,19.48
2018-10-03T02:10:11.240Z,22.37
2018-10-03T02:12:39.428Z,22.30
2018-10-03T02:15:07.615Z,25.43
2018-10-03T02:17:35.830Z,27.22
2018-10-03T02:20:04.065Z,25.75
2018-10-03T02:22:32.253Z,27.80
2018-10-03T02:25:00.460Z,30.95
2018-10-03T02:27:28.689Z,31.82
2018-10-03T02:29:56.872Z,31.05
2018-10-03T02:32:25.062Z,32.73
2018-10-03T02:34:53.247Z,35.05
2018-10-03T02:37:21.551Z,35.85
2018-10-03T02:39:49.742Z,33.23
2018-10-03T02:42:18.098Z,36.65
2018-10-03T02:44:46.308Z,33.95
2018-10-03T02:47:14.529Z,39.27
2018-10-03T02:49:42.695Z,38.48
2018-10-03T02:52:10.911Z,43.25
2018-10-03T02:54:39.159Z,42.90
2018-10-03T02:57:07.430Z,39.87
2018-10-03T02:59:35.629Z,41.40
2018-10-03T03:02:03.826Z,39.50
2018-10-03T03:04:32.028Z,37.80
2018-10-03T03:07:00.228Z,37.03
2018-10-03T03:09:28.460Z,35.15
2018-10-03T03:11:56.691Z,39.70
2018-10-03T03:14:24.877Z,36.90
2018-10-03T03:16:53.103Z,39.48
2018-10-03T03:19:21.328Z,37.25
2018-10-03T03:21:49.543Z,37.73
2018-10-03T03:24:17.732Z,37.67
2018-10-03T03:26:45.984Z,40.50
2018-10-03T03:29:14.150Z,39.20
2018-10-03T03:31:42.323Z,37.10
2018-10-03T03:34:10.536Z,38.00
2018-10-03T03:36:38.777Z,36.00
2018-10-03T03:39:07.740Z,34.88
2018-10-03T03:41:36.080Z,35.43
2018-10-03T03:44:04.316Z,33.73
2018-10-03T03:46:32.550Z,31.48
2018-10-03T03:49:00.753Z,32.85
2018-10-03T03:51:28.948Z,34.83
2018-10-03T03:53:57.190Z,33.30
2018-10-03T03:56:25.651Z,32.73
2018-10-03T03:58:53.894Z,32.23
2018-10-03T04:01:22.135Z,31.33
2018-10-03T04:03:50.376Z,30.03
2018-10-03T04:06:18.595Z,29.32
2018-10-03T04:08:46.796Z,30.82
2018-10-03T04:11:15.010Z,28.87
2018-10-03T04:13:43.268Z,30.35
2018-10-03T04:16:11.505Z,31.65
2018-10-03T04:18:39.727Z,31.85
2018-10-03T04:21:07.930Z,30.48
2018-10-03T04:23:36.146Z,33.33
2018-10-03T04:26:04.383Z,30.65
2018-10-03T04:28:32.588Z,31.30
2018-10-03T04:31:00.815Z,35.25
2018-10-03T04:33:29.040Z,36.95
2018-10-03T04:35:57.259Z,36.20
2018-10-03T04:38:25.440Z,37.03
2018-10-03T04:40:53.656Z,35.50
2018-10-03T04:43:21.839Z,37.30
2018-10-03T04:45:50.113Z,35.28
2018-10-03T04:48:18.337Z,34.70
2018-10-03T04:50:46.578Z,35.50
2018-10-03T04:53:14.813Z,35.40
2018-10-03T04:55:43.025Z,36.55
2018-10-03T04:58:11.252Z,34.53
2018-10-03T05:00:39.517Z,36.08
2018-10-03T05:03:07.724Z,38.67
2018-10-03T05:05:35.907Z,35.35
2018-10-03T05:08:04.128Z,37.10
2018-10-03T05:10:32.334Z,35.55
2018-10-03T05:13:00.537Z,34.45
2018-10-03T05:15:28.745Z,34.20
2018-10-03T05:17:56.965Z,35.13
2018-10-03T05:20:25.176Z,36.68
2018-10-03T05:22:53.510Z,35.73
2018-10-03T05:25:21.733Z,35.10
2018-10-03T05:27:50.190Z,32.27
2018-10-03T05:30:18.329Z,33.70
2018-10-03T05:32:46.572Z,29.82
2018-10-03T05:35:14.838Z,32.37
2018-10-03T05:37:43.186Z,30.48
2018-10-03T05:40:11.568Z,32.55
2018-10-03T05:42:39.786Z,30.90
2018-10-03T05:45:08.093Z,30.08
2018-10-03T05:47:36.307Z,29.27
2018-10-03T05:50:04.528Z,31.12
2018-10-03T05:52:32.726Z,29.95
2018-10-03T05:55:00.936Z,31.75
2018-10-03T05:57:29.151Z,30.35
2018-10-03T05:59:57.355Z,30.30
2018-10-03T06:02:25.549Z,29.05
2018-10-03T06:04:53.771Z,32.20
2018-10-03T06:07:21.993Z,29.27
2018-10-03T06:09:50.196Z,28.25
2018-10-03T06:12:18.481Z,27.98
2018-10-03T06:14:46.620Z,27.77
2018-10-03T06:17:14.799Z,26.52
2018-10-03T06:19:44.853Z,24.87
2018-10-03T06:22:15.208Z,21.52
2018-10-03T06:24:43.431Z,22.52
2018-10-03T06:27:12.129Z,18.60
2018-10-03T06:29:40.315Z,21.05
2018-10-03T06:32:08.460Z,16.87
2018-10-03T06:34:36.618Z,15.23
2018-10-03T06:37:04.800Z,15.25
2018-10-03T06:39:33.063Z,14.75
2018-10-03T06:42:01.252Z,13.75
2018-10-03T06:44:29.439Z,10.13
2018-10-03T06:46:57.616Z,10.68
2018-10-03T06:49:25.768Z,9.38
2018-10-03T06:51:53.923Z,9.93
2018-10-03T06:54:22.081Z,9.45
2018-10-03T06:56:50.318Z,8.43
2018-10-03T06:59:18.464Z,8.30
2018-10-03T07:01:46.618Z,8.20
2018-10-03T07:04:14.808Z,8.07
2018-10-03T07:06:42.955Z,8.53
2018-10-03T07:09:11.120Z,7.67
2018-10-03T07:11:39.348Z,7.60
2018-10-03T07:14:07.513Z,8.03
2018-10-03T07:16:35.668Z,6.97
2018-10-03T07:19:03.836Z,6.00
2018-10-03T07:21:31.999Z,5.00
2018-10-03T07:24:00.155Z,4.90
2018-10-03T07:26:28.311Z,6.60
2018-10-03T07:28:56.479Z,7.13
2018-10-03T07:31:24.633Z,4.90
2018-10-03T07:33:52.855Z,7.70
2018-10-03T07:36:21.040Z,5.67
2018-10-03T07:38:49.238Z,6.13
2018-10-03T07:41:17.413Z,6.13
2018-10-03T07:43:45.708Z,5.80
2018-10-03T07:46:13.903Z,5.10
2018-10-03T07:48:44.316Z,6.20
2018-10-03T07:51:12.484Z,5.70
2018-10-03T07:53:40.788Z,5.50
2018-10-03T07:56:08.983Z,4.83
2018-10-03T07:58:37.143Z,6.33
2018-10-03T08:01:05.334Z,5.47
2018-10-03T08:03:33.534Z,5.90
2018-10-03T08:06:01.666Z,4.97
2018-10-03T08:08:29.827Z,5.20
2018-10-03T08:10:57.991Z,6.77
2018-10-03T08:13:26.145Z,5.30
2018-10-03T08:15:54.319Z,6.07
2018-10-03T08:18:22.496Z,5.30
2018-10-03T08:20:50.672Z,5.40
2018-10-03T08:23:18.832Z,4.80
2018-10-03T08:25:47.110Z,5.43
2018-10-03T08:28:15.477Z,6.20
2018-10-03T08:30:43.619Z,5.50
2018-10-03T08:33:11.840Z,4.83
2018-10-03T08:35:40.000Z,5.20
2018-10-03T08:38:08.188Z,5.80
2018-10-03T08:40:36.339Z,4.23
2018-10-03T08:43:04.514Z,4.43
2018-10-03T08:45:32.727Z,5.33
2018-10-03T08:48:00.904Z,3.93
2018-10-03T08:50:29.073Z,4.30
2018-10-03T08:52:57.219Z,4.97
2018-10-03T08:55:25.472Z,5.60
2018-10-03T08:57:53.642Z,4.17
2018-10-03T09:00:21.865Z,5.87
2018-10-03T09:02:50.108Z,5.30
2018-10-03T09:05:18.314Z,4.73
2018-10-03T09:07:46.523Z,4.37
2018-10-03T09:10:14.839Z,4.23
2018-10-03T09:12:43.047Z,4.77
2018-10-03T09:15:11.208Z,4.37
2018-10-03T09:17:39.411Z,5.10
2018-10-03T09:20:07.745Z,4.17
2018-10-03T09:22:35.916Z,4.50
2018-10-03T09:25:04.173Z,3.63
2018-10-03T09:27:32.370Z,3.90
2018-10-03T09:30:00.584Z,3.87
2018-10-03T09:32:28.838Z,4.20
2018-10-03T09:34:57.024Z,4.90
2018-10-03T09:37:25.292Z,5.43
2018-10-03T09:39:53.465Z,4.73
2018-10-03T09:42:21.665Z,4.47
2018-10-03T09:44:49.830Z,4.00
2018-10-03T09:47:18.037Z,5.23
2018-10-03T09:49:46.301Z,5.17
2018-10-03T09:52:14.438Z,6.30
2018-10-03T09:54:42.615Z,4.73
2018-10-03T09:57:10.903Z,5.23
2018-10-03T09:59:39.260Z,4.87
2018-10-03T10:02:07.415Z,4.27
2018-10-03T10:04:35.705Z,4.83
2018-10-03T10:07:03.960Z,4.97
2018-10-03T10:09:32.152Z,4.90
2018-10-03T10:12:00.369Z,4.30
2018-10-03T10:14:28.585Z,3.57
2018-10-03T10:16:57.042Z,4.37
2018-10-03T10:19:25.269Z,4.80
2018-10-03T10:21:53.478Z,4.20
2018-10-03T10:24:21.687Z,5.20
2018-10-03T10:26:49.915Z,5.10
2018-10-03T10:29:18.124Z,3.80
2018-10-03T10:31:46.350Z,5.60
2018-10-03T10:34:14.491Z,4.57
2018-10-03T10:36:42.702Z,3.70
2018-10-03T10:39:12.026Z,4.13
2018-10-03T10:41:40.502Z,4.03
2018-10-03T10:44:08.575Z,3.93
2018-10-03T10:46:38.081Z,3.80
2018-10-03T10:49:06.272Z,4.63
2018-10-03T10:51:34.534Z,3.80
2018-10-03T10:54:02.780Z,3.90
2018-10-03T10:56:30.981Z,4.60
2018-10-03T10:58:59.142Z,4.90
2018-10-03T11:01:27.486Z,3.23
2018-10-03T11:03:55.752Z,3.80
2018-10-03T11:06:24.070Z,4.60
2018-10-03T11:08:52.323Z,3.50
2018-10-03T11:11:20.652Z,3.67
2018-10-03T11:13:48.908Z,4.23
2018-10-03T11:16:17.153Z,4.17
2018-10-03T11:18:45.433Z,3.70
2018-10-03T11:21:13.667Z,4.10
2018-10-03T11:23:42.049Z,3.97
2018-10-03T11:26:10.044Z,3.87
2018-10-03T11:28:38.269Z,3.70
2018-10-03T11:31:06.525Z,3.43
2018-10-03T11:33:34.729Z,2.77
2018-10-03T11:36:02.938Z,3.90
2018-10-03T11:38:31.119Z,4.43
2018-10-03T11:40:59.358Z,4.30
2018-10-03T11:43:27.548Z,3.50
2018-10-03T11:45:55.789Z,3.33
2018-10-03T11:48:24.052Z,4.13
2018-10-03T11:50:52.274Z,3.77
2018-10-03T11:53:20.485Z,4.30
2018-10-03T11:55:48.698Z,4.17
2018-10-03T11:58:16.941Z,4.20
2018-10-03T12:00:45.161Z,4.20
2018-10-03T12:03:13.472Z,5.43
2018-10-03T12:05:43.636Z,3.83
2018-10-03T12:08:11.868Z,5.00
2018-10-03T12:10:40.061Z,4.83
2018-10-03T12:13:08.283Z,3.80
2018-10-03T12:15:36.482Z,4.33
2018-10-03T12:18:04.684Z,3.77
2018-10-03T12:20:32.851Z,4.47
2018-10-03T12:23:01.003Z,4.07
2018-10-03T12:25:29.228Z,4.37
2018-10-03T12:27:57.401Z,4.03
2018-10-03T12:30:25.580Z,3.90
2018-10-03T12:32:53.784Z,3.70
2018-10-03T12:35:27.320Z,3.67
2018-10-03T12:37:55.520Z,3.80
2018-10-03T12:40:23.704Z,3.70
2018-10-03T12:42:51.927Z,5.10
2018-10-03T12:45:20.127Z,3.43
2018-10-03T12:47:48.344Z,3.43
2018-10-03T12:50:16.552Z,3.73
2018-10-03T12:52:44.719Z,3.87
2018-10-03T12:55:12.980Z,2.97
2018-10-03T12:57:41.170Z,3.50
2018-10-03T13:00:09.436Z,4.10
2018-10-03T13:02:37.624Z,3.80
2018-10-03T13:05:05.911Z,4.17
2018-10-03T13:07:34.141Z,3.60
2018-10-03T13:10:02.452Z,4.33
2018-10-03T13:12:30.644Z,4.20
2018-10-03T13:14:58.863Z,3.73
2018-10-03T13:17:27.029Z,3.50
2018-10-03T13:19:55.204Z,4.40
2018-10-03T13:22:23.379Z,4.20
2018-10-03T13:24:51.699Z,4.57
2018-10-03T13:27:19.873Z,4.20
2018-10-03T13:29:48.053Z,4.30
2018-10-03T13:32:16.280Z,4.33
2018-10-03T13:34:44.472Z,4.73
2018-10-03T13:37:12.643Z,4.60
2018-10-03T13:39:40.860Z,4.33
2018-10-03T13:42:09.076Z,4.90
2018-10-03T13:44:37.284Z,5.57
2018-10-03T13:47:05.564Z,4.90
2018-10-03T13:49:33.793Z,4.40
2018-10-03T13:52:01.961Z,4.50
2018-10-03T13:54:31.212Z,4.83
2018-10-03T13:56:59.455Z,3.93
2018-10-03T13:59:27.616Z,3.73
2018-10-03T14:01:55.900Z,3.57
2018-10-03T14:04:24.043Z,4.23
2018-10-03T14:06:52.216Z,4.17
2018-10-03T14:09:20.440Z,3.60
2018-10-03T14:11:48.684Z,3.83
2018-10-03T14:14:16.884Z,3.47
2018-10-03T14:16:45.132Z,4.07
2018-10-03T14:19:13.419Z,4.00
2018-10-03T14:21:41.689Z,5.70
2018-10-03T14:24:09.878Z,4.03
2018-10-03T14:26:38.135Z,4.50
2018-10-03T14:29:06.309Z,4.90
2018-10-03T14:31:34.510Z,3.70
2018-10-03T14:34:02.664Z,4.17
2018-10-03T14:36:30.836Z,4.27
2018-10-03T14:38:59.427Z,4.30
2018-10-03T14:41:32.099Z,4.03
2018-10-03T14:44:00.325Z,5.13
2018-10-03T14:46:28.606Z,4.00
2018-10-03T14:48:56.718Z,3.83
2018-10-03T14:51:24.883Z,3.40
2018-10-03T14:53:53.048Z,4.60
2018-10-03T14:56:21.263Z,3.80
2018-10-03T14:58:49.605Z,3.40
2018-10-03T15:01:17.705Z,3.23
2018-10-03T15:03:46.039Z,3.73
2018-10-03T15:06:14.266Z,4.00
2018-10-03T15:08:42.560Z,3.53
2018-10-03T15:11:10.756Z,3.80
2018-10-03T15:13:38.979Z,3.67
2018-10-03T15:16:07.228Z,3.97
2018-10-03T15:18:35.463Z,4.43
2018-10-03T15:21:03.671Z,4.07
2018-10-03T15:23:31.843Z,5.00
2018-10-03T15:26:00.038Z,4.40
2018-10-03T15:28:28.256Z,3.70
2018-10-03T15:30:56.583Z,4.80
2018-10-03T15:33:24.767Z,3.60
2018-10-03T15:35:52.949Z,4.80
2018-10-03T15:38:21.096Z,4.13
2018-10-03T15:40:49.271Z,3.93
2018-10-03T15:43:17.444Z,4.33
2018-10-03T15:45:45.628Z,4.53
2018-10-03T15:48:13.882Z,3.87
2018-10-03T15:50:41.999Z,3.90
2018-10-03T15:53:10.254Z,5.30
2018-10-03T15:55:38.679Z,4.10
2018-10-03T15:58:06.831Z,4.67
2018-10-03T16:00:35.372Z,4.00
2018-10-03T16:03:03.571Z,4.13
2018-10-03T16:05:31.726Z,5.40
2018-10-03T16:07:59.878Z,4.80
2018-10-03T16:10:28.043Z,3.50
2018-10-03T16:12:56.192Z,3.97
2018-10-03T16:15:24.364Z,3.20
2018-10-03T16:17:53.120Z,4.10
2018-10-03T16:20:21.340Z,3.67
2018-10-03T16:22:49.514Z,3.70
2018-10-03T16:25:17.691Z,3.80
2018-10-03T16:27:45.921Z,2.90
2018-10-03T16:30:14.135Z,3.77
2018-10-03T16:32:42.294Z,4.17
2018-10-03T16:35:10.814Z,3.97
2018-10-03T16:37:39.025Z,3.57
2018-10-03T16:40:09.751Z,3.90
2018-10-03T16:42:37.920Z,3.70
2018-10-03T16:45:06.136Z,4.10
2018-10-03T16:47:34.356Z,4.80
2018-10-03T16:50:02.650Z,3.87
2018-10-03T16:52:30.790Z,3.40
2018-10-03T16:54:58.967Z,4.75
2018-10-03T16:57:27.174Z,4.20
2018-10-03T16:59:55.401Z,4.43
2018-10-03T17:02:23.562Z,4.53
2018-10-03T17:04:51.735Z,3.90
2018-10-03T17:07:19.980Z,3.15
2018-10-03T17:09:48.216Z,3.37
2018-10-03T17:12:16.390Z,6.03
2018-10-03T17:14:44.605Z,6.25
2018-10-03T17:17:12.835Z,6.30
2018-10-03T17:19:41.046Z,5.80
2018-10-03T17:22:09.299Z,6.15
2018-10-03T17:24:38.308Z,4.80
2018-10-03T17:27:06.649Z,4.78
2018-10-03T17:29:34.825Z,4.25
2018-10-03T17:32:03.009Z,4.53
2018-10-03T17:34:31.332Z,4.00
2018-10-03T17:37:00.624Z,3.85
2018-10-03T17:39:28.926Z,4.87
2018-10-03T17:41:57.371Z,4.95
2018-10-03T17:44:25.739Z,4.33
2018-10-03T17:46:56.296Z,4.00
2018-10-03T17:49:24.547Z,3.40
2018-10-03T17:51:52.832Z,3.10
2018-10-03T17:54:21.040Z,4.83
2018-10-03T17:56:49.251Z,5.20
2018-10-03T17:59:17.470Z,4.50
2018-10-03T18:01:48.510Z,4.50
2018-10-03T18:04:16.796Z,3.55
2018-10-03T18:06:45.003Z,3.98
2018-10-03T18:09:13.237Z,4.42
2018-10-03T18:11:41.369Z,4.90
2018-10-03T18:14:09.530Z,4.80
2018-10-03T18:16:37.730Z,3.83
2018-10-03T18:19:05.945Z,3.83
2018-10-03T18:21:34.792Z,4.78
2018-10-03T18:24:02.957Z,4.85
2018-10-03T18:26:31.136Z,3.72
2018-10-03T18:28:59.308Z,3.67
2018-10-03T18:31:27.575Z,3.08
2018-10-03T18:33:55.935Z,4.90
2018-10-03T18:36:24.178Z,4.10
2018-10-03T18:38:55.094Z,3.45
2018-10-03T18:41:23.466Z,4.45
2018-10-03T18:43:51.716Z,4.00
2018-10-03T18:46:19.978Z,4.80
2018-10-03T18:48:48.405Z,3.90
2018-10-03T18:51:16.838Z,4.33
2018-10-03T18:53:45.012Z,4.50
2018-10-03T18:56:13.258Z,4.10
2018-10-03T18:58:41.529Z,3.70
2018-10-03T19:01:09.855Z,4.80
2018-10-03T19:03:38.027Z,5.30
2018-10-03T19:06:06.213Z,6.25
2018-10-03T19:08:34.751Z,5.20
2018-10-03T19:11:03.018Z,6.58
2018-10-03T19:13:31.224Z,6.53
2018-10-03T19:15:59.453Z,5.40
2018-10-03T19:18:27.595Z,5.10
2018-10-03T19:20:55.763Z,6.30
2018-10-03T19:23:23.940Z,5.75
2018-10-03T19:25:52.093Z,6.53
2018-10-03T19:28:20.332Z,5.28
2018-10-03T19:30:48.487Z,5.58
2018-10-03T19:33:19.647Z,5.22
2018-10-03T19:35:47.879Z,4.70
2018-10-03T19:38:15.960Z,3.87
2018-10-03T19:40:44.103Z,4.62
2018-10-03T19:43:12.263Z,4.65
2018-10-03T19:45:40.540Z,4.67
2018-10-03T19:48:08.791Z,4.42
2018-10-03T19:50:36.859Z,4.62
2018-10-03T19:53:05.040Z,4.70
2018-10-03T19:55:33.867Z,5.50
2018-10-03T19:58:02.058Z,6.30
2018-10-03T20:00:30.444Z,5.10
2018-10-03T20:02:58.599Z,4.55
2018-10-03T20:05:26.840Z,4.53
2018-10-03T20:07:55.074Z,5.22
2018-10-03T20:10:23.232Z,4.67
2018-10-03T20:12:51.541Z,5.17
2018-10-03T20:15:20.638Z,4.55
2018-10-03T20:17:48.838Z,4.45
2018-10-03T20:20:17.050Z,3.92
2018-10-03T20:22:45.197Z,5.17
2018-10-03T20:25:14.435Z,4.58
2018-10-03T20:27:42.622Z,4.25
2018-10-03T20:30:10.788Z,4.65
2018-10-03T20:32:38.932Z,4.55
2018-10-03T20:35:07.054Z,4.10
2018-10-03T20:37:35.182Z,3.98
2018-10-03T20:40:03.619Z,5.25
2018-10-03T20:42:31.932Z,5.05
2018-10-03T20:45:00.367Z,4.30
2018-10-03T20:47:28.662Z,5.28
2018-10-03T20:49:56.907Z,4.40
2018-10-03T20:52:25.216Z,4.78
2018-10-03T20:54:53.502Z,4.40
2018-10-03T20:57:21.729Z,5.87
2018-10-03T20:59:50.034Z,4.75
2018-10-03T21:02:18.276Z,6.10
2018-10-03T21:04:46.659Z,5.50
2018-10-03T21:07:14.911Z,5.60
2018-10-03T21:09:43.260Z,6.03
2018-10-03T21:12:11.628Z,4.20
2018-10-03T21:14:39.983Z,5.75
2018-10-03T21:17:08.292Z,5.05
2018-10-03T21:19:36.626Z,5.15
2018-10-03T21:22:05.103Z,5.60
2018-10-03T21:24:33.462Z,4.90
2018-10-03T21:27:01.763Z,5.08
2018-10-03T21:29:30.078Z,5.10
2018-10-03T21:31:58.506Z,6.92
2018-10-03T21:34:27.502Z,5.83
2018-10-03T21:36:56.968Z,4.72
2018-10-03T21:39:25.628Z,4.33
2018-10-03T21:41:54.720Z,5.03
2018-10-03T21:44:23.676Z,5.70
2018-10-03T21:46:52.616Z,4.85
2018-10-03T21:49:20.995Z,4.50
2018-10-03T21:51:49.263Z,5.05
2018-10-03T21:54:18.261Z,4.60
2018-10-03T21:56:47.244Z,4.25
2018-10-03T21:59:15.931Z,4.37
2018-10-03T22:01:44.817Z,4.35
2018-10-03T22:04:14.125Z,4.90
2018-10-03T22:06:43.111Z,4.47
2018-10-03T22:09:11.518Z,5.20
2018-10-03T22:11:40.501Z,4.42
2018-10-03T22:14:09.106Z,4.67
2018-10-03T22:16:37.312Z,4.50
2018-10-03T22:19:05.481Z,4.10
2018-10-03T22:21:33.623Z,4.37
2018-10-03T22:24:02.599Z,4.62
2018-10-03T22:26:30.819Z,4.30
2018-10-03T22:28:59.007Z,4.17
2018-10-03T22:31:27.152Z,4.87
2018-10-03T22:33:55.327Z,5.10
2018-10-03T22:36:23.684Z,4.17
2018-10-03T22:38:51.897Z,4.22
2018-10-03T22:41:20.227Z,4.25
2018-10-03T22:43:48.434Z,4.25
2018-10-03T22:46:16.567Z,4.62
2018-10-03T22:48:44.752Z,5.75
2018-10-03T22:51:12.936Z,4.58
2018-10-03T22:53:41.111Z,4.03
2018-10-03T22:56:09.292Z,3.95
2018-10-03T22:58:37.514Z,4.15
2018-10-03T23:01:05.792Z,5.65
2018-10-03T23:03:33.975Z,5.35
2018-10-03T23:06:02.222Z,4.62
2018-10-03T23:08:31.374Z,4.83
2018-10-03T23:10:59.894Z,4.17
2018-10-03T23:13:28.067Z,4.37
2018-10-03T23:15:56.208Z,5.17
2018-10-03T23:18:24.360Z,4.12
2018-10-03T23:20:52.634Z,4.65
2018-10-03T23:23:20.753Z,4.60
2018-10-03T23:25:49.171Z,5.12
2018-10-03T23:28:17.410Z,4.72
2018-10-03T23:30:45.613Z,4.70
2018-10-03T23:33:13.822Z,4.97
2018-10-03T23:35:42.036Z,4.78
2018-10-03T23:38:10.233Z,4.20
2018-10-03T23:40:38.447Z,4.22
2018-10-03T23:43:06.646Z,4.50
2018-10-03T23:45:34.871Z,4.37
2018-10-03T23:48:03.048Z,4.55
2018-10-03T23:50:31.199Z,5.42
2018-10-03T23:52:59.362Z,4.58
2018-10-03T23:55:27.512Z,4.55
2018-10-03T23:57:55.675Z,4.62
